Time;durP1;ratioP1;P1;durP2;ratioP2;P2;SDS_P1;SDS_P2;PMS_P1;PMS_P2;Temp;Humidity;BMP_temperature;BMP_pressure;BME280_temperature;BME280_humidity;BME280_pressure;Samples;Min_cycle;Max_cycle;Signal;HPM_P1;HPM_P2
2021/09/22 00:01:18;;;;;;;;;;;10.10;99.90;;;;;;4991853;28;19925;-74
2021/09/22 00:03:45;;;;;;;;;;;10.10;99.90;;;;;;4991903;28;19925;-74
2021/09/22 00:06:11;;;;;;;;;;;10.10;99.90;;;;;;4997731;28;19932;-74
2021/09/22 00:08:38;;;;;;;;;;;10.10;99.90;;;;;;4990670;28;20055;-74
2021/09/22 00:11:06;;;;;;;;;;;10.10;99.90;;;;;;5000085;28;19940;-74
2021/09/22 00:13:33;;;;;;;;;;;10.10;99.90;;;;;;5001538;28;19932;-74
2021/09/22 00:15:59;;;;;;;;;;;10.10;99.90;;;;;;4991658;28;19957;-74
2021/09/22 00:18:26;;;;;;;;;;;10.10;99.90;;;;;;4992359;28;19940;-74
2021/09/22 00:20:53;;;;;;;;;;;10.10;99.90;;;;;;4995094;28;20012;-75
2021/09/22 00:23:19;;;;;;;;;;;10.00;99.90;;;;;;4989877;28;19965;-74
2021/09/22 00:25:46;;;;;;;;;;;10.00;99.90;;;;;;4994796;28;20366;-74
2021/09/22 00:28:14;;;;;;;;;;;10.00;99.90;;;;;;4990169;28;20016;-75
2021/09/22 00:30:41;;;;;;;;;;;9.90;99.90;;;;;;4996820;28;20017;-74
2021/09/22 00:33:08;;;;;;;;;;;9.90;99.90;;;;;;4992172;28;19932;-75
2021/09/22 00:35:34;;;;;;;;;;;9.90;99.90;;;;;;4996391;28;20372;-75
2021/09/22 00:38:01;;;;;;;;;;;9.90;99.90;;;;;;4995842;28;20032;-74
2021/09/22 00:40:28;;;;;;;;;;;9.90;99.90;;;;;;4992446;28;19926;-75
2021/09/22 00:42:54;;;;;;;;;;;9.80;99.90;;;;;;4993825;28;19926;-74
2021/09/22 00:45:22;;;;;;;;;;;9.80;99.90;;;;;;4996387;28;19933;-74
2021/09/22 00:47:49;;;;;;;;;;;9.80;99.90;;;;;;4991303;28;20032;-75
2021/09/22 00:50:16;;;;;;;;;;;9.80;99.90;;;;;;4990310;28;20096;-74
2021/09/22 00:52:49;;;;;;;;;;;9.80;99.90;;;;;;5003785;28;20012;-75
2021/09/22 00:55:25;;;;;;;;;;;9.80;99.90;;;;;;4991276;28;19926;-74
2021/09/22 00:57:53;;;;;;;;;;;9.80;99.90;;;;;;5000432;28;20414;-74
2021/09/22 01:00:22;;;;;;;;;;;9.80;99.90;;;;;;4996854;28;19926;-74
2021/09/22 01:02:50;;;;;;;;;;;9.80;99.90;;;;;;4996395;28;20380;-74
2021/09/22 01:05:17;;;;;;;;;;;9.70;99.90;;;;;;4997024;28;20021;-74
2021/09/22 01:07:44;;;;;;;;;;;9.70;99.90;;;;;;4994044;28;20029;-74
2021/09/22 01:10:11;;;;;;;;;;;9.70;99.90;;;;;;4996231;28;20020;-73
2021/09/22 01:12:38;;;;;;;;;;;9.60;99.90;;;;;;4995852;28;19926;-74
2021/09/22 01:15:05;;;;;;;;;;;9.70;99.90;;;;;;4996325;28;20016;-74
2021/09/22 01:17:33;;;;;;;;;;;9.70;99.90;;;;;;4994391;28;19964;-74
2021/09/22 01:20:01;;;;;;;;;;;9.70;99.90;;;;;;4990454;28;20451;-74
2021/09/22 01:22:30;;;;;;;;;;;9.70;99.90;;;;;;4995581;28;19925;-74
2021/09/22 01:24:57;;;;;;;;;;;9.60;99.90;;;;;;4992841;28;19957;-75
2021/09/22 01:27:23;;;;;;;;;;;9.60;99.90;;;;;;4992609;28;20006;-74
2021/09/22 01:29:50;;;;;;;;;;;9.60;99.90;;;;;;4996477;28;19965;-75
2021/09/22 01:32:17;;;;;;;;;;;9.60;99.90;;;;;;4996496;28;20676;-75
2021/09/22 01:34:44;;;;;;;;;;;9.70;99.90;;;;;;4990970;28;19934;-75
2021/09/22 01:37:10;;;;;;;;;;;9.60;99.90;;;;;;4992277;28;20024;-75
2021/09/22 01:39:39;;;;;;;;;;;9.60;99.90;;;;;;4994220;28;20127;-75
2021/09/22 01:42:06;;;;;;;;;;;9.50;99.90;;;;;;4994102;28;19972;-75
2021/09/22 01:44:33;;;;;;;;;;;9.50;99.90;;;;;;4992433;28;20362;-75
2021/09/22 01:47:00;;;;;;;;;;;9.50;99.90;;;;;;5000508;28;23031;-75
2021/09/22 01:49:27;;;;;;;;;;;9.40;99.90;;;;;;5004561;28;20000;-74
2021/09/22 01:51:57;;;;;;;;;;;9.30;99.90;;;;;;4995585;28;20356;-75
2021/09/22 01:54:23;;;;;;;;;;;9.30;99.90;;;;;;5002568;28;20410;-75
2021/09/22 01:56:52;;;;;;;;;;;9.30;99.90;;;;;;4996511;28;19980;-75
2021/09/22 01:59:19;;;;;;;;;;;9.20;99.90;;;;;;4996847;28;20025;-75
2021/09/22 02:01:45;;;;;;;;;;;9.20;99.90;;;;;;4994654;28;20383;-75
2021/09/22 02:04:12;;;;;;;;;;;9.20;99.90;;;;;;4992468;28;20028;-75
2021/09/22 02:06:39;;;;;;;;;;;9.20;99.90;;;;;;5006631;28;19961;-74
2021/09/22 02:09:06;;;;;;;;;;;9.20;99.90;;;;;;4998714;28;19973;-74
2021/09/22 02:11:32;;;;;;;;;;;9.10;99.90;;;;;;5003964;28;20006;-75
2021/09/22 02:14:00;;;;;;;;;;;9.10;99.90;;;;;;4993724;28;19925;-75
2021/09/22 02:16:27;;;;;;;;;;;9.20;99.90;;;;;;5002060;28;20012;-75
2021/09/22 02:18:54;;;;;;;;;;;9.00;99.90;;;;;;5001781;28;20346;-74
2021/09/22 02:21:20;;;;;;;;;;;9.10;99.90;;;;;;4998474;28;19966;-75
2021/09/22 02:23:47;;;;;;;;;;;9.00;99.90;;;;;;5002901;28;19953;-75
2021/09/22 02:26:14;;;;;;;;;;;9.00;99.90;;;;;;5002238;28;20028;-75
2021/09/22 02:28:41;;;;;;;;;;;9.00;99.90;;;;;;4991569;28;20008;-74
2021/09/22 02:31:09;;;;;;;;;;;9.00;99.90;;;;;;4991960;28;19973;-75
2021/09/22 02:33:36;;;;;;;;;;;8.90;99.90;;;;;;4994923;28;19986;-75
2021/09/22 02:36:02;;;;;;;;;;;8.90;99.90;;;;;;4997714;28;20017;-75
2021/09/22 02:38:32;;;;;;;;;;;8.80;99.90;;;;;;4999540;28;20368;-74
2021/09/22 02:40:59;;;;;;;;;;;8.90;99.90;;;;;;5001834;28;19972;-75
2021/09/22 02:43:26;;;;;;;;;;;8.90;99.90;;;;;;4996422;28;20032;-74
2021/09/22 02:45:52;;;;;;;;;;;8.90;99.90;;;;;;4998007;28;20331;-75
2021/09/22 02:48:20;;;;;;;;;;;8.90;99.90;;;;;;4996283;28;20032;-74
2021/09/22 02:53:30;;;;;;;;;;;8.90;99.90;;;;;;4996856;28;20590;-75
2021/09/22 02:55:57;;;;;;;;;;;8.90;99.90;;;;;;4998546;28;20032;-74
2021/09/22 02:58:23;;;;;;;;;;;8.90;99.90;;;;;;4994184;28;19973;-74
2021/09/22 03:00:50;;;;;;;;;;;8.90;99.90;;;;;;4992692;28;20017;-73
2021/09/22 03:03:17;;;;;;;;;;;8.80;99.90;;;;;;4998872;28;20012;-73
2021/09/22 03:05:45;;;;;;;;;;;8.80;99.90;;;;;;4993876;28;20025;-74
2021/09/22 03:08:12;;;;;;;;;;;8.80;99.90;;;;;;4992830;28;19980;-74
2021/09/22 03:10:39;;;;;;;;;;;8.80;99.90;;;;;;4997736;28;20468;-75
2021/09/22 03:13:05;;;;;;;;;;;8.80;99.90;;;;;;4996360;28;19965;-74
2021/09/22 03:15:32;;;;;;;;;;;8.80;99.90;;;;;;4997512;28;19991;-73
2021/09/22 03:17:59;;;;;;;;;;;8.80;99.90;;;;;;4997166;28;19972;-74
2021/09/22 03:20:25;;;;;;;;;;;8.70;99.90;;;;;;4998636;28;20395;-75
2021/09/22 03:22:53;;;;;;;;;;;8.70;99.90;;;;;;4991626;28;20077;-73
2021/09/22 03:25:20;;;;;;;;;;;8.60;99.90;;;;;;4998814;28;20025;-74
2021/09/22 03:27:47;;;;;;;;;;;8.60;99.90;;;;;;4997055;28;19965;-74
2021/09/22 03:30:14;;;;;;;;;;;8.60;99.90;;;;;;4998472;28;19972;-74
2021/09/22 03:32:41;;;;;;;;;;;8.60;99.90;;;;;;4992599;28;20395;-73
2021/09/22 03:35:08;;;;;;;;;;;8.50;99.90;;;;;;5001073;28;19992;-74
2021/09/22 03:37:35;;;;;;;;;;;8.50;99.90;;;;;;4997496;28;20483;-74
2021/09/22 03:40:04;;;;;;;;;;;8.50;99.90;;;;;;4997866;28;19949;-73
2021/09/22 03:42:30;;;;;;;;;;;8.50;99.90;;;;;;4993520;28;19971;-74
2021/09/22 03:44:57;;;;;;;;;;;8.50;99.90;;;;;;4997152;28;20455;-73
2021/09/22 03:47:24;;;;;;;;;;;8.50;99.90;;;;;;4996272;28;20034;-73
2021/09/22 03:49:50;;;;;;;;;;;8.50;99.90;;;;;;4994627;28;20028;-73
2021/09/22 03:52:17;;;;;;;;;;;8.50;99.90;;;;;;4999918;28;20012;-74
2021/09/22 03:54:44;;;;;;;;;;;8.50;99.90;;;;;;4997076;28;20025;-73
2021/09/22 03:57:12;;;;;;;;;;;8.50;99.90;;;;;;4990686;28;19965;-73
2021/09/22 03:59:39;;;;;;;;;;;8.50;99.90;;;;;;4995135;28;19973;-73
2021/09/22 04:02:06;;;;;;;;;;;8.60;99.90;;;;;;5000458;28;19933;-73
2021/09/22 04:04:33;;;;;;;;;;;8.40;99.90;;;;;;4999191;28;20016;-73
2021/09/22 04:06:59;;;;;;;;;;;8.40;99.90;;;;;;4991898;28;19990;-73
2021/09/22 04:09:26;;;;;;;;;;;8.30;99.90;;;;;;4989300;28;19965;-73
2021/09/22 04:11:53;;;;;;;;;;;8.30;99.90;;;;;;5005152;28;19972;-73
2021/09/22 04:14:21;;;;;;;;;;;8.30;99.90;;;;;;4997546;28;19976;-75
2021/09/22 04:16:48;;;;;;;;;;;8.40;99.90;;;;;;4991929;28;19965;-74
2021/09/22 04:19:14;;;;;;;;;;;8.20;99.90;;;;;;4997839;28;19976;-74
2021/09/22 04:21:41;;;;;;;;;;;8.20;99.90;;;;;;4994186;28;19958;-74
2021/09/22 04:24:09;;;;;;;;;;;8.20;99.90;;;;;;4991243;28;20416;-74
2021/09/22 04:26:36;;;;;;;;;;;8.20;99.90;;;;;;4989215;28;19982;-74
2021/09/22 04:29:03;;;;;;;;;;;8.20;99.90;;;;;;4996731;28;20008;-74
2021/09/22 04:31:31;;;;;;;;;;;8.20;99.90;;;;;;5000196;28;19945;-74
2021/09/22 04:33:58;;;;;;;;;;;8.30;99.90;;;;;;4988760;28;20391;-74
2021/09/22 04:36:25;;;;;;;;;;;8.20;99.90;;;;;;4998456;28;20027;-76
2021/09/22 04:38:52;;;;;;;;;;;8.20;99.90;;;;;;4998176;28;20408;-77
2021/09/22 04:41:19;;;;;;;;;;;8.20;99.90;;;;;;4990967;28;19965;-77
2021/09/22 04:43:46;;;;;;;;;;;8.20;99.90;;;;;;4995673;28;20028;-77
2021/09/22 04:46:12;;;;;;;;;;;8.10;99.90;;;;;;4994625;28;20016;-76
2021/09/22 04:48:41;;;;;;;;;;;8.10;99.90;;;;;;4995656;28;19934;-76
2021/09/22 04:51:08;;;;;;;;;;;8.00;99.90;;;;;;4995976;28;19980;-77
2021/09/22 04:53:34;;;;;;;;;;;8.00;99.90;;;;;;4990866;28;19937;-76
2021/09/22 04:56:01;;;;;;;;;;;8.00;99.90;;;;;;4991388;28;20475;-77
2021/09/22 04:58:28;;;;;;;;;;;8.00;99.90;;;;;;4990537;28;19953;-76
2021/09/22 05:00:56;;;;;;;;;;;7.90;99.90;;;;;;4991193;28;20055;-76
2021/09/22 05:03:22;;;;;;;;;;;8.00;99.90;;;;;;4997049;28;19925;-76
2021/09/22 05:05:50;;;;;;;;;;;7.90;99.90;;;;;;4989246;28;20404;-77
2021/09/22 05:08:17;;;;;;;;;;;7.90;99.90;;;;;;4990378;28;22262;-77
2021/09/22 05:10:44;;;;;;;;;;;7.90;99.90;;;;;;4992863;28;20025;-77
2021/09/22 05:13:10;;;;;;;;;;;7.90;99.90;;;;;;4997410;28;19968;-76
2021/09/22 05:15:37;;;;;;;;;;;7.90;99.90;;;;;;4997018;28;19978;-75
2021/09/22 05:18:04;;;;;;;;;;;7.90;99.90;;;;;;4999865;28;19925;-75
2021/09/22 05:20:31;;;;;;;;;;;7.90;99.90;;;;;;4999152;28;20021;-76
2021/09/22 05:22:59;;;;;;;;;;;7.90;99.90;;;;;;4994122;28;19968;-76
2021/09/22 05:25:25;;;;;;;;;;;7.90;99.90;;;;;;5001894;28;19957;-77
2021/09/22 05:27:52;;;;;;;;;;;7.80;99.90;;;;;;4998585;28;20012;-78
2021/09/22 05:30:19;;;;;;;;;;;7.90;99.90;;;;;;5005251;28;19925;-79
2021/09/22 05:32:46;;;;;;;;;;;7.90;99.90;;;;;;4999826;28;19990;-78
2021/09/22 05:35:12;;;;;;;;;;;7.80;99.90;;;;;;4995286;28;19972;-78
2021/09/22 05:37:39;;;;;;;;;;;7.90;99.90;;;;;;5005151;28;20020;-78
2021/09/22 05:40:09;;;;;;;;;;;7.90;99.90;;;;;;5004881;28;19933;-78
2021/09/22 05:42:35;;;;;;;;;;;7.90;99.90;;;;;;5004612;28;20024;-78
2021/09/22 05:45:03;;;;;;;;;;;7.80;99.90;;;;;;4996685;28;20407;-77
2021/09/22 05:47:30;;;;;;;;;;;7.80;99.90;;;;;;5009040;28;19926;-78
2021/09/22 05:49:57;;;;;;;;;;;7.90;99.90;;;;;;5002133;28;19990;-77
2021/09/22 05:52:23;;;;;;;;;;;7.90;99.90;;;;;;4995257;28;19970;-78
2021/09/22 05:54:50;;;;;;;;;;;7.90;99.90;;;;;;5004084;28;20012;-78
2021/09/22 05:57:18;;;;;;;;;;;8.00;99.90;;;;;;5001996;28;20427;-79
2021/09/22 05:59:45;;;;;;;;;;;8.00;99.90;;;;;;4995338;28;20306;-78
2021/09/22 06:02:12;;;;;;;;;;;8.10;99.90;;;;;;5003091;28;19949;-76
2021/09/22 06:04:38;;;;;;;;;;;8.10;99.90;;;;;;5000591;28;19995;-78
2021/09/22 06:07:05;;;;;;;;;;;8.20;99.90;;;;;;5009263;28;20009;-76
2021/09/22 06:09:32;;;;;;;;;;;8.30;99.90;;;;;;4992745;28;19933;-76
2021/09/22 06:11:58;;;;;;;;;;;8.40;99.90;;;;;;5000477;28;20210;-76
2021/09/22 06:14:27;;;;;;;;;;;8.50;99.90;;;;;;5006633;28;19929;-78
2021/09/22 06:16:54;;;;;;;;;;;8.60;99.90;;;;;;4998055;28;20424;-77
2021/09/22 06:19:20;;;;;;;;;;;8.70;99.90;;;;;;5006627;28;19977;-74
2021/09/22 06:21:47;;;;;;;;;;;8.70;99.90;;;;;;5020169;28;19991;-76
2021/09/22 06:24:18;;;;;;;;;;;8.80;99.90;;;;;;5000046;28;19926;-76
2021/09/22 06:26:46;;;;;;;;;;;9.00;99.90;;;;;;5033539;28;19923;-78
2021/09/22 06:29:12;;;;;;;;;;;9.10;99.90;;;;;;5009542;28;19965;-77
2021/09/22 06:31:41;;;;;;;;;;;9.10;99.90;;;;;;5003317;28;20100;-79
2021/09/22 06:34:07;;;;;;;;;;;9.20;99.90;;;;;;5053626;28;20368;-76
2021/09/22 06:36:34;;;;;;;;;;;9.30;99.90;;;;;;5021729;28;19926;-78
2021/09/22 06:39:03;;;;;;;;;;;9.40;99.90;;;;;;5002950;28;20012;-76
2021/09/22 06:41:30;;;;;;;;;;;9.50;99.90;;;;;;4998242;28;20009;-75
2021/09/22 06:43:57;;;;;;;;;;;9.60;99.90;;;;;;5006302;28;20349;-77
2021/09/22 06:46:24;;;;;;;;;;;9.80;99.90;;;;;;5008467;28;19986;-74
2021/09/22 06:48:52;;;;;;;;;;;9.90;99.90;;;;;;5008819;28;19934;-79
2021/09/22 06:51:18;;;;;;;;;;;10.00;99.90;;;;;;5000708;28;19929;-78
2021/09/22 06:53:45;;;;;;;;;;;10.10;99.90;;;;;;4990129;28;20448;-77
2021/09/22 06:56:12;;;;;;;;;;;10.20;99.90;;;;;;5023670;28;20112;-77
2021/09/22 06:58:39;;;;;;;;;;;10.20;99.90;;;;;;5002014;28;20006;-76
2021/09/22 07:01:06;;;;;;;;;;;10.30;99.90;;;;;;5007910;28;19933;-77
2021/09/22 07:03:33;;;;;;;;;;;10.40;99.90;;;;;;5012039;28;19979;-77
2021/09/22 07:06:01;;;;;;;;;;;10.40;99.90;;;;;;5008604;28;20026;-78
2021/09/22 07:08:27;;;;;;;;;;;10.60;99.90;;;;;;5000722;28;19925;-77
2021/09/22 07:10:54;;;;;;;;;;;10.70;99.90;;;;;;5001662;28;19992;-78
2021/09/22 07:13:22;;;;;;;;;;;10.80;99.90;;;;;;5003658;28;19926;-74
2021/09/22 07:15:49;;;;;;;;;;;10.90;99.90;;;;;;5007199;28;20497;-77
2021/09/22 07:18:18;;;;;;;;;;;11.00;99.90;;;;;;5001212;28;20323;-77
2021/09/22 07:20:45;;;;;;;;;;;11.20;99.90;;;;;;5035581;28;19926;-78
2021/09/22 07:23:13;;;;;;;;;;;11.50;99.90;;;;;;5019206;28;20016;-78
2021/09/22 07:25:40;;;;;;;;;;;11.90;99.90;;;;;;5018298;28;20248;-79
2021/09/22 07:28:07;;;;;;;;;;;12.30;99.90;;;;;;4997351;28;20553;-79
2021/09/22 07:30:34;;;;;;;;;;;13.10;99.90;;;;;;4995983;28;19981;-75
2021/09/22 07:33:01;;;;;;;;;;;14.70;99.90;;;;;;5025951;28;19961;-80
2021/09/22 07:35:28;;;;;;;;;;;16.30;99.90;;;;;;5012477;28;19926;-77
2021/09/22 07:37:55;;;;;;;;;;;17.40;99.90;;;;;;5015549;28;20332;-76
2021/09/22 07:40:23;;;;;;;;;;;18.80;99.90;;;;;;5001397;28;19926;-77
2021/09/22 07:42:50;;;;;;;;;;;19.80;97.40;;;;;;5028806;28;19963;-77
2021/09/22 07:45:17;;;;;;;;;;;20.60;95.20;;;;;;4994355;28;20074;-76
2021/09/22 07:47:44;;;;;;;;;;;20.60;91.70;;;;;;5015383;28;20376;-77
2021/09/22 07:50:12;;;;;;;;;;;20.90;91.10;;;;;;4996413;28;20025;-77
2021/09/22 07:52:39;;;;;;;;;;;21.80;92.80;;;;;;4996929;28;19941;-80
2021/09/22 07:55:07;;;;;;;;;;;22.10;91.70;;;;;;4991196;28;19930;-76
2021/09/22 07:57:35;;;;;;;;;;;22.60;81.60;;;;;;4994242;28;20025;-79
2021/09/22 08:00:02;;;;;;;;;;;22.90;78.20;;;;;;5011133;28;20532;-80
2021/09/22 08:02:29;;;;;;;;;;;22.70;77.40;;;;;;5005772;28;19964;-80
2021/09/22 08:04:56;;;;;;;;;;;22.30;76.80;;;;;;4994812;28;19929;-80
2021/09/22 08:07:22;;;;;;;;;;;21.80;79.90;;;;;;4999125;28;20747;-79
2021/09/22 08:09:49;;;;;;;;;;;21.40;79.20;;;;;;5002497;28;20020;-77
2021/09/22 08:12:16;;;;;;;;;;;21.20;81.20;;;;;;4999125;28;20499;-78
2021/09/22 08:14:44;;;;;;;;;;;20.50;81.90;;;;;;4996595;28;19960;-76
2021/09/22 08:17:14;;;;;;;;;;;20.30;85.40;;;;;;4996097;28;20162;-77
2021/09/22 08:19:41;;;;;;;;;;;20.70;82.90;;;;;;4994686;28;19925;-76
2021/09/22 08:22:08;;;;;;;;;;;21.00;80.40;;;;;;5002076;28;20414;-76
2021/09/22 08:24:35;;;;;;;;;;;20.80;78.60;;;;;;4988992;28;19930;-75
2021/09/22 08:27:03;;;;;;;;;;;20.90;78.60;;;;;;4992606;28;19934;-76
2021/09/22 08:29:30;;;;;;;;;;;21.00;75.50;;;;;;4994108;28;19933;-78
2021/09/22 08:31:58;;;;;;;;;;;20.70;75.70;;;;;;4996147;28;19925;-78
2021/09/22 08:34:25;;;;;;;;;;;21.20;72.10;;;;;;4991337;28;20361;-74
2021/09/22 08:36:52;;;;;;;;;;;21.80;70.10;;;;;;4989576;28;19995;-79
2021/09/22 08:39:19;;;;;;;;;;;22.00;67.10;;;;;;4992683;28;20005;-78
2021/09/22 08:41:46;;;;;;;;;;;21.50;68.00;;;;;;4990785;28;20408;-79
2021/09/22 08:44:14;;;;;;;;;;;21.50;68.70;;;;;;4989860;28;19997;-75
2021/09/22 08:46:44;;;;;;;;;;;21.40;69.30;;;;;;4993906;28;19973;-78
2021/09/22 08:49:12;;;;;;;;;;;22.00;68.70;;;;;;4987294;28;20412;-77
2021/09/22 08:51:39;;;;;;;;;;;21.90;68.40;;;;;;4995341;28;20029;-76
2021/09/22 08:54:06;;;;;;;;;;;21.80;68.40;;;;;;4998397;28;20396;-79
2021/09/22 08:56:36;;;;;;;;;;;21.40;69.70;;;;;;4991254;28;19932;-79
2021/09/22 08:59:03;;;;;;;;;;;21.20;67.80;;;;;;4995464;28;20391;-77
2021/09/22 09:01:30;;;;;;;;;;;20.90;69.60;;;;;;4992293;28;20009;-79
2021/09/22 09:03:57;;;;;;;;;;;21.10;71.30;;;;;;4993406;28;19926;-76
2021/09/22 09:06:26;;;;;;;;;;;21.50;72.00;;;;;;4988580;28;20359;-77
2021/09/22 09:08:54;;;;;;;;;;;21.90;72.20;;;;;;4994229;28;19945;-77
2021/09/22 09:11:24;;;;;;;;;;;22.20;71.30;;;;;;4988746;28;20536;-77
2021/09/22 09:13:52;;;;;;;;;;;22.50;70.80;;;;;;4987610;28;19932;-76
2021/09/22 09:16:22;;;;;;;;;;;22.70;70.40;;;;;;4990717;28;19934;-78
2021/09/22 09:18:49;;;;;;;;;;;22.60;70.80;;;;;;4991938;28;19926;-77
2021/09/22 09:21:16;;;;;;;;;;;23.20;68.70;;;;;;4993092;28;19990;-77
2021/09/22 09:23:52;;;;;;;;;;;23.30;67.30;;;;;;4990508;28;20359;-77
2021/09/22 09:26:21;;;;;;;;;;;23.50;66.30;;;;;;4993163;28;20023;-79
2021/09/22 09:28:49;;;;;;;;;;;24.00;63.60;;;;;;4995150;28;19930;-82
2021/09/22 09:31:16;;;;;;;;;;;24.70;62.90;;;;;;4987755;28;20014;-77
2021/09/22 09:33:44;;;;;;;;;;;25.60;58.70;;;;;;4987319;28;20025;-76
2021/09/22 09:36:18;;;;;;;;;;;26.00;54.60;;;;;;4988627;28;19940;-77
2021/09/22 09:38:48;;;;;;;;;;;25.70;52.40;;;;;;4994827;28;20889;-77
2021/09/22 09:41:27;;;;;;;;;;;25.80;49.80;;;;;;4986621;28;19934;-77
2021/09/22 09:43:54;;;;;;;;;;;26.00;49.10;;;;;;4991425;28;20089;-78
2021/09/22 09:46:21;;;;;;;;;;;26.20;47.70;;;;;;4996504;28;20445;-78
2021/09/22 09:49:03;;;;;;;;;;;25.80;46.20;;;;;;4989260;28;19930;-77
2021/09/22 09:51:31;;;;;;;;;;;25.40;46.00;;;;;;4997686;28;19926;-75
2021/09/22 09:54:04;;;;;;;;;;;25.20;44.40;;;;;;4987220;28;19926;-76
2021/09/22 09:56:33;;;;;;;;;;;25.20;44.10;;;;;;4990460;28;19933;-76
2021/09/22 09:59:00;;;;;;;;;;;24.60;43.50;;;;;;4992520;28;19993;-78
2021/09/22 10:01:35;;;;;;;;;;;24.10;42.70;;;;;;4985875;28;19941;-76
2021/09/22 10:04:02;;;;;;;;;;;23.50;44.50;;;;;;4992079;28;19979;-77
2021/09/22 10:06:29;;;;;;;;;;;22.40;47.60;;;;;;4995676;28;20002;-78
2021/09/22 10:08:56;;;;;;;;;;;21.50;49.30;;;;;;4996588;28;20009;-79
2021/09/22 10:11:23;;;;;;;;;;;20.70;51.40;;;;;;4995918;28;19977;-78
2021/09/22 10:13:52;;;;;;;;;;;20.00;54.40;;;;;;5002508;28;19984;-78
2021/09/22 10:16:20;;;;;;;;;;;19.80;56.70;;;;;;4995226;28;19934;-77
2021/09/22 10:18:47;;;;;;;;;;;19.70;56.40;;;;;;5000099;28;20093;-77
2021/09/22 10:21:15;;;;;;;;;;;19.70;57.90;;;;;;5000205;28;20025;-77
2021/09/22 10:23:43;;;;;;;;;;;19.80;58.60;;;;;;4991807;28;20334;-77
2021/09/22 10:26:10;;;;;;;;;;;19.80;58.90;;;;;;4999152;28;20068;-76
2021/09/22 10:28:38;;;;;;;;;;;19.80;59.40;;;;;;4994441;28;19953;-77
2021/09/22 10:31:14;;;;;;;;;;;19.60;59.00;;;;;;4999543;28;19998;-76
2021/09/22 10:33:44;;;;;;;;;;;19.50;59.70;;;;;;4996089;28;19957;-77
2021/09/22 10:36:11;;;;;;;;;;;19.50;59.10;;;;;;4995654;28;19933;-76
2021/09/22 10:38:43;;;;;;;;;;;19.50;60.30;;;;;;4994561;28;19930;-77
2021/09/22 10:41:10;;;;;;;;;;;19.60;59.40;;;;;;4998782;28;19934;-77
2021/09/22 10:43:38;;;;;;;;;;;19.70;59.80;;;;;;4998039;28;20024;-77
2021/09/22 10:46:14;;;;;;;;;;;19.80;60.30;;;;;;5001580;28;19937;-77
2021/09/22 10:48:42;;;;;;;;;;;19.60;60.50;;;;;;4990175;28;19964;-77
2021/09/22 10:51:10;;;;;;;;;;;19.60;60.10;;;;;;4995889;28;19957;-77
2021/09/22 10:53:41;;;;;;;;;;;19.60;60.60;;;;;;4996614;28;19926;-76
2021/09/22 10:56:08;;;;;;;;;;;19.80;59.90;;;;;;4994242;28;20365;-76
2021/09/22 10:58:39;;;;;;;;;;;20.00;59.20;;;;;;5022070;28;20414;-75
2021/09/22 11:01:06;;;;;;;;;;;20.10;59.60;;;;;;4994627;28;19984;-75
2021/09/22 11:03:57;;;;;;;;;;;20.30;60.50;;;;;;5005956;28;19983;-75
2021/09/22 11:06:42;;;;;;;;;;;20.40;59.70;;;;;;5022436;28;19948;-75
2021/09/22 11:09:10;;;;;;;;;;;20.30;58.20;;;;;;4991434;28;20012;-75
2021/09/22 11:11:58;;;;;;;;;;;20.10;58.50;;;;;;5022780;28;20135;-75
2021/09/22 11:14:33;;;;;;;;;;;20.20;58.90;;;;;;4993100;28;20627;-76
2021/09/22 11:17:00;;;;;;;;;;;20.20;58.90;;;;;;4991288;28;19977;-75
2021/09/22 11:19:29;;;;;;;;;;;20.30;59.40;;;;;;4994729;28;20470;-75
2021/09/22 11:21:56;;;;;;;;;;;20.40;59.00;;;;;;4993486;28;20429;-76
2021/09/22 11:24:26;;;;;;;;;;;20.40;58.20;;;;;;5013353;28;20013;-77
2021/09/22 11:26:53;;;;;;;;;;;20.40;58.40;;;;;;4993075;28;19974;-78
2021/09/22 11:29:30;;;;;;;;;;;20.60;58.80;;;;;;4995092;28;19965;-77
2021/09/22 11:31:59;;;;;;;;;;;20.70;58.70;;;;;;4994582;28;19926;-78
2021/09/22 11:34:28;;;;;;;;;;;20.70;60.10;;;;;;4995299;28;19926;-78
2021/09/22 11:37:08;;;;;;;;;;;20.70;58.80;;;;;;4993511;28;20361;-78
2021/09/22 11:39:35;;;;;;;;;;;20.60;58.10;;;;;;5000301;28;19925;-78
2021/09/22 11:42:02;;;;;;;;;;;20.70;58.20;;;;;;4995309;28;20008;-78
2021/09/22 11:44:29;;;;;;;;;;;20.80;58.70;;;;;;4998416;28;19964;-77
2021/09/22 11:46:58;;;;;;;;;;;20.80;59.10;;;;;;4992202;28;20034;-78
2021/09/22 11:49:32;;;;;;;;;;;21.00;60.30;;;;;;4992383;28;20399;-77
2021/09/22 11:52:06;;;;;;;;;;;21.10;58.10;;;;;;4995625;28;19976;-76
2021/09/22 11:54:34;;;;;;;;;;;21.20;58.50;;;;;;5002083;28;19932;-76
2021/09/22 11:57:01;;;;;;;;;;;21.10;57.30;;;;;;4996326;28;19994;-78
2021/09/22 11:59:31;;;;;;;;;;;21.20;57.40;;;;;;4991601;28;20012;-78
2021/09/22 12:01:58;;;;;;;;;;;21.30;58.30;;;;;;4999349;28;20383;-77
2021/09/22 12:04:24;;;;;;;;;;;21.10;57.40;;;;;;4996927;28;19936;-77
2021/09/22 12:06:52;;;;;;;;;;;21.10;56.30;;;;;;4997598;28;20009;-77
2021/09/22 12:09:19;;;;;;;;;;;20.80;56.90;;;;;;5003663;28;19934;-76
2021/09/22 12:11:46;;;;;;;;;;;20.80;57.20;;;;;;4990288;28;19994;-75
2021/09/22 12:14:27;;;;;;;;;;;20.70;57.40;;;;;;4993323;28;20137;-76
2021/09/22 12:17:04;;;;;;;;;;;20.60;57.70;;;;;;4991459;28;20020;-76
2021/09/22 12:19:31;;;;;;;;;;;20.60;58.10;;;;;;4994330;28;19969;-78
2021/09/22 12:21:59;;;;;;;;;;;20.50;58.20;;;;;;4991625;28;20350;-76
2021/09/22 12:24:28;;;;;;;;;;;20.50;58.00;;;;;;4994837;28;19965;-75
2021/09/22 12:26:55;;;;;;;;;;;20.70;58.70;;;;;;4994953;28;20297;-77
2021/09/22 12:29:22;;;;;;;;;;;20.80;58.40;;;;;;4990371;28;19977;-77
2021/09/22 12:31:52;;;;;;;;;;;20.80;58.20;;;;;;4987252;28;19930;-77
2021/09/22 12:34:20;;;;;;;;;;;20.80;59.20;;;;;;4989467;28;19979;-78
2021/09/22 12:36:47;;;;;;;;;;;20.80;59.00;;;;;;4994250;28;20033;-73
2021/09/22 12:39:16;;;;;;;;;;;20.80;58.40;;;;;;5013097;28;19956;-77
2021/09/22 12:41:56;;;;;;;;;;;20.80;59.00;;;;;;4991182;28;20406;-77
2021/09/22 12:44:23;;;;;;;;;;;21.00;59.10;;;;;;4999938;28;19975;-77
2021/09/22 12:46:50;;;;;;;;;;;21.10;58.70;;;;;;4994988;28;19953;-77
2021/09/22 12:49:18;;;;;;;;;;;21.10;58.10;;;;;;5033250;28;19969;-75
2021/09/22 12:51:46;;;;;;;;;;;20.80;58.60;;;;;;4991203;28;19979;-77
2021/09/22 12:54:14;;;;;;;;;;;20.80;58.10;;;;;;4995880;28;19948;-76
2021/09/22 12:56:43;;;;;;;;;;;20.80;59.00;;;;;;4999176;28;19926;-80
2021/09/22 12:59:16;;;;;;;;;;;20.80;58.70;;;;;;4999933;28;19972;-76
2021/09/22 13:01:48;;;;;;;;;;;20.90;58.80;;;;;;4992525;28;20012;-79
2021/09/22 13:04:21;;;;;;;;;;;20.80;58.50;;;;;;4993186;28;19984;-77
2021/09/22 13:06:50;;;;;;;;;;;20.80;58.80;;;;;;4992592;28;20332;-78
2021/09/22 13:09:17;;;;;;;;;;;21.00;59.00;;;;;;4991438;28;19926;-77
2021/09/22 13:11:46;;;;;;;;;;;20.90;58.60;;;;;;4995713;28;19978;-76
2021/09/22 13:14:16;;;;;;;;;;;20.90;59.60;;;;;;4999514;28;19930;-81
2021/09/22 13:16:49;;;;;;;;;;;20.80;58.90;;;;;;4995970;28;19926;-75
2021/09/22 13:19:16;;;;;;;;;;;20.80;59.20;;;;;;4997230;28;20449;-76
2021/09/22 13:21:44;;;;;;;;;;;21.00;58.90;;;;;;4997192;28;19971;-75
2021/09/22 13:24:11;;;;;;;;;;;21.10;58.20;;;;;;4992636;28;19981;-75
2021/09/22 13:26:39;;;;;;;;;;;21.00;58.70;;;;;;4996366;28;20242;-75
2021/09/22 13:29:07;;;;;;;;;;;21.10;57.50;;;;;;5002863;28;20090;-73
2021/09/22 13:31:36;;;;;;;;;;;21.30;58.00;;;;;;5008328;28;20020;-75
2021/09/22 13:34:04;;;;;;;;;;;21.50;58.40;;;;;;4995626;28;20013;-76
2021/09/22 13:36:30;;;;;;;;;;;21.50;58.40;;;;;;4993565;28;19976;-76
2021/09/22 13:38:58;;;;;;;;;;;21.30;58.70;;;;;;4997058;28;19972;-76
2021/09/22 13:41:25;;;;;;;;;;;21.20;59.10;;;;;;4993395;28;20017;-77
2021/09/22 13:43:52;;;;;;;;;;;21.10;58.60;;;;;;4998526;28;20020;-81
2021/09/22 13:46:20;;;;;;;;;;;21.10;59.00;;;;;;4998709;28;19940;-80
2021/09/22 13:48:47;;;;;;;;;;;20.90;58.90;;;;;;4993402;28;20018;-77
2021/09/22 13:51:15;;;;;;;;;;;21.00;59.70;;;;;;5016216;28;19934;-78
2021/09/22 13:53:42;;;;;;;;;;;21.10;59.40;;;;;;5000979;28;19925;-77
2021/09/22 13:56:09;;;;;;;;;;;21.00;57.90;;;;;;4991482;28;19965;-78
2021/09/22 13:58:36;;;;;;;;;;;21.00;58.00;;;;;;5013750;28;19926;-78
2021/09/22 14:01:03;;;;;;;;;;;21.00;58.00;;;;;;4992332;28;19965;-77
2021/09/22 14:03:32;;;;;;;;;;;21.00;58.50;;;;;;5036852;28;19973;-76
2021/09/22 14:05:59;;;;;;;;;;;20.90;59.30;;;;;;5015341;28;19986;-74
2021/09/22 14:08:26;;;;;;;;;;;20.90;58.90;;;;;;4998947;28;19961;-78
2021/09/22 14:10:54;;;;;;;;;;;21.10;58.80;;;;;;4992190;28;20384;-78
2021/09/22 14:13:22;;;;;;;;;;;21.30;58.40;;;;;;4996893;28;20015;-79
2021/09/22 14:15:49;;;;;;;;;;;21.40;57.80;;;;;;4997162;28;19994;-78
2021/09/22 14:18:16;;;;;;;;;;;21.60;57.70;;;;;;4995378;28;19969;-78
2021/09/22 14:20:45;;;;;;;;;;;21.50;57.40;;;;;;5002264;28;19974;-79
2021/09/22 14:23:13;;;;;;;;;;;21.40;57.50;;;;;;5002798;28;20014;-78
2021/09/22 14:25:40;;;;;;;;;;;21.20;59.40;;;;;;5006355;28;19925;-77
2021/09/22 14:28:07;;;;;;;;;;;21.40;57.60;;;;;;4993059;28;20029;-82
2021/09/22 14:30:34;;;;;;;;;;;21.50;57.90;;;;;;4997919;28;20016;-78